createdAt,value
2018-12-25T00:00:41.526Z,5.60
2018-12-25T00:02:11.293Z,7.10
2018-12-25T00:03:40.786Z,6.15
2018-12-25T00:05:10.288Z,6.25
2018-12-25T00:06:39.786Z,11.78
2018-12-25T00:08:09.302Z,12.53
2018-12-25T00:09:38.794Z,14.50
2018-12-25T00:11:08.757Z,19.17
2018-12-25T00:12:38.534Z,18.23
2018-12-25T00:14:08.171Z,16.48
2018-12-25T00:15:37.947Z,18.95
2018-12-25T00:17:07.449Z,21.87
2018-12-25T00:18:36.972Z,20.27
2018-12-25T00:20:06.471Z,12.13
2018-12-25T00:21:36.352Z,9.53
2018-12-25T00:23:05.865Z,8.63
2018-12-25T00:24:35.382Z,6.60
2018-12-25T00:26:05.184Z,17.57
2018-12-25T00:27:35.306Z,10.85
2018-12-25T00:29:05.312Z,13.43
2018-12-25T00:30:35.112Z,9.18
2018-12-25T00:32:04.606Z,7.83
2018-12-25T00:33:34.490Z,7.20
2018-12-25T00:35:04.489Z,7.28
2018-12-25T00:36:34.309Z,7.55
2018-12-25T00:38:03.808Z,7.50
2018-12-25T00:39:33.582Z,7.87
2018-12-25T00:41:03.173Z,7.08
2018-12-25T00:42:33.008Z,7.08
2018-12-25T00:44:02.629Z,6.62
2018-12-25T00:45:32.132Z,8.23
2018-12-25T00:47:01.636Z,6.17
2018-12-25T00:48:31.290Z,7.22
2018-12-25T00:50:00.917Z,6.90
2018-12-25T00:51:30.524Z,7.00
2018-12-25T00:53:00.029Z,9.68
2018-12-25T00:54:29.631Z,9.88
2018-12-25T00:55:59.235Z,6.53
2018-12-25T00:57:28.736Z,11.10
2018-12-25T00:58:58.249Z,9.75
2018-12-25T01:00:27.740Z,8.28
2018-12-25T01:01:57.341Z,8.95
2018-12-25T01:03:27.133Z,10.05
2018-12-25T01:04:56.650Z,5.22
2018-12-25T01:06:26.148Z,6.25
2018-12-25T01:07:55.649Z,5.62
2018-12-25T01:09:25.166Z,4.20
2018-12-25T01:10:54.664Z,4.28
2018-12-25T01:12:24.445Z,3.33
2018-12-25T01:13:53.939Z,4.00
2018-12-25T01:15:23.458Z,4.08
2018-12-25T01:16:53.297Z,5.37
2018-12-25T01:18:23.083Z,5.20
2018-12-25T01:19:52.794Z,5.37
2018-12-25T01:21:22.391Z,4.15
2018-12-25T01:22:52.510Z,5.53
2018-12-25T01:24:22.019Z,7.37
2018-12-25T01:25:51.529Z,5.83
2018-12-25T01:27:21.039Z,5.78
2018-12-25T01:28:51.003Z,5.03
2018-12-25T01:30:20.510Z,3.70
2018-12-25T01:31:50.096Z,4.40
2018-12-25T01:33:19.587Z,5.40
2018-12-25T01:34:49.108Z,5.17
2018-12-25T01:36:18.917Z,4.78
2018-12-25T01:37:48.416Z,5.70
2018-12-25T01:39:18.450Z,4.15
2018-12-25T01:40:48.056Z,5.08
2018-12-25T01:42:17.561Z,4.90
2018-12-25T01:43:47.156Z,4.22
2018-12-25T01:45:16.658Z,4.53
2018-12-25T01:46:46.437Z,3.52
2018-12-25T01:48:15.935Z,3.95
2018-12-25T01:49:45.460Z,4.20
2018-12-25T01:51:14.955Z,3.20
2018-12-25T01:52:44.469Z,4.75
2018-12-25T01:54:13.963Z,4.92
2018-12-25T01:55:43.472Z,4.08
2018-12-25T01:57:13.319Z,4.85
2018-12-25T01:58:42.825Z,5.28
2018-12-25T02:00:12.717Z,4.90
2018-12-25T02:01:42.230Z,3.67
2018-12-25T02:03:11.718Z,8.08
2018-12-25T02:04:41.212Z,5.15
2018-12-25T02:06:10.723Z,4.70
2018-12-25T02:07:40.226Z,4.47
2018-12-25T02:09:09.735Z,10.72
2018-12-25T02:10:39.260Z,6.40
2018-12-25T02:12:08.847Z,5.30
2018-12-25T02:13:38.358Z,6.37
2018-12-25T02:15:07.863Z,5.25
2018-12-25T02:16:37.358Z,4.97
2018-12-25T02:18:06.840Z,4.37
2018-12-25T02:19:40.149Z,4.08
2018-12-25T02:21:07.865Z,4.37
2018-12-25T02:22:37.484Z,5.20
2018-12-25T02:24:06.992Z,4.80
2018-12-25T02:25:36.503Z,4.35
2018-12-25T02:27:05.990Z,4.87
2018-12-25T02:28:35.493Z,5.20
2018-12-25T02:30:05.547Z,7.28
2018-12-25T02:31:35.354Z,4.22
2018-12-25T02:33:05.157Z,4.33
2018-12-25T02:34:34.655Z,3.42
2018-12-25T02:36:04.516Z,3.90
2018-12-25T02:37:34.120Z,3.72
2018-12-25T02:39:06.297Z,4.92
2018-12-25T02:40:35.818Z,5.05
2018-12-25T02:42:05.320Z,5.60
2018-12-25T02:43:35.109Z,5.60
2018-12-25T02:45:04.719Z,5.28
2018-12-25T02:46:34.241Z,6.10
2018-12-25T02:48:03.740Z,4.40
2018-12-25T02:49:33.533Z,4.30
2018-12-25T02:51:03.144Z,4.25
2018-12-25T02:52:32.769Z,4.03
2018-12-25T02:54:02.316Z,4.15
2018-12-25T02:55:31.799Z,4.67
2018-12-25T02:57:01.295Z,2.90
2018-12-25T02:58:31.191Z,4.10
2018-12-25T03:00:00.828Z,6.58
2018-12-25T03:01:30.605Z,4.42
2018-12-25T03:03:00.836Z,4.90
2018-12-25T03:04:30.765Z,3.22
2018-12-25T03:06:00.359Z,3.90
2018-12-25T03:07:29.851Z,4.65
2018-12-25T03:08:59.343Z,6.47
2018-12-25T03:10:28.941Z,5.35
2018-12-25T03:11:58.774Z,6.80
2018-12-25T03:13:28.274Z,3.95
2018-12-25T03:14:57.758Z,5.87
2018-12-25T03:16:27.261Z,3.65
2018-12-25T03:17:56.846Z,5.22
2018-12-25T03:19:26.443Z,3.67
2018-12-25T03:20:56.310Z,4.45
2018-12-25T03:22:25.859Z,4.60
2018-12-25T03:23:55.363Z,4.28
2018-12-25T03:25:24.866Z,4.53
2018-12-25T03:26:54.375Z,3.17
2018-12-25T03:28:23.881Z,6.00
2018-12-25T03:29:53.642Z,3.90
2018-12-25T03:31:23.199Z,5.92
2018-12-25T03:32:52.661Z,4.65
2018-12-25T03:34:22.440Z,4.05
2018-12-25T03:35:52.355Z,4.05
2018-12-25T03:37:21.873Z,4.78
2018-12-25T03:38:51.464Z,4.85
2018-12-25T03:40:20.959Z,3.80
2018-12-25T03:41:50.788Z,4.40
2018-12-25T03:43:20.279Z,4.45
2018-12-25T03:44:50.055Z,4.30
2018-12-25T03:46:19.756Z,6.12
2018-12-25T03:47:49.633Z,4.00
2018-12-25T03:49:19.456Z,5.03
2018-12-25T03:50:49.276Z,3.85
2018-12-25T03:52:18.774Z,3.58
2018-12-25T03:53:48.614Z,5.17
2018-12-25T03:55:18.397Z,5.03
2018-12-25T03:56:47.891Z,3.22
2018-12-25T03:58:17.381Z,4.87
2018-12-25T03:59:47.184Z,3.75
2018-12-25T04:01:16.984Z,4.10
2018-12-25T04:02:46.503Z,3.25
2018-12-25T04:04:16.367Z,3.83
2018-12-25T04:05:45.861Z,6.20
2018-12-25T04:07:15.366Z,4.28
2018-12-25T04:08:45.191Z,4.05
2018-12-25T04:10:14.677Z,4.67
2018-12-25T04:11:44.177Z,4.85
2018-12-25T04:13:13.677Z,5.42
2018-12-25T04:14:43.274Z,5.20
2018-12-25T04:16:13.165Z,6.37
2018-12-25T04:17:42.676Z,4.40
2018-12-25T04:19:12.804Z,4.55
2018-12-25T04:20:42.393Z,4.12
2018-12-25T04:22:11.902Z,5.60
2018-12-25T04:23:41.665Z,6.80
2018-12-25T04:25:11.273Z,5.08
2018-12-25T04:26:40.793Z,6.67
2018-12-25T04:28:10.602Z,6.80
2018-12-25T04:29:40.490Z,4.87
2018-12-25T04:31:10.320Z,5.80
2018-12-25T04:32:39.917Z,4.90
2018-12-25T04:34:09.516Z,4.72
2018-12-25T04:35:39.105Z,5.03
2018-12-25T04:37:08.946Z,4.08
2018-12-25T04:38:38.542Z,4.55
2018-12-25T04:40:08.339Z,3.92
2018-12-25T04:41:37.927Z,5.95
2018-12-25T04:43:08.044Z,5.75
2018-12-25T04:44:37.843Z,5.05
2018-12-25T04:46:07.346Z,5.28
2018-12-25T04:47:37.144Z,4.80
2018-12-25T04:49:06.636Z,5.33
2018-12-25T04:50:36.634Z,4.47
2018-12-25T04:52:06.249Z,4.17
2018-12-25T04:53:36.575Z,5.12
2018-12-25T04:55:06.410Z,4.17
2018-12-25T04:56:35.902Z,6.83
2018-12-25T04:58:05.765Z,3.50
2018-12-25T04:59:35.597Z,3.40
2018-12-25T05:01:05.409Z,5.60
2018-12-25T05:02:34.911Z,4.03
2018-12-25T05:04:04.774Z,4.95
2018-12-25T05:05:34.270Z,3.83
2018-12-25T05:07:03.858Z,4.70
2018-12-25T05:08:33.465Z,7.87
2018-12-25T05:10:03.231Z,4.15
2018-12-25T05:11:32.737Z,5.17
2018-12-25T05:13:02.836Z,10.70
2018-12-25T05:14:32.583Z,7.65
2018-12-25T05:16:02.511Z,14.87
2018-12-25T05:17:32.626Z,25.82
2018-12-25T05:19:02.218Z,19.90
2018-12-25T05:20:37.796Z,16.25
2018-12-25T05:22:03.101Z,4.97
2018-12-25T05:23:32.611Z,8.03
2018-12-25T05:25:02.200Z,11.68
2018-12-25T05:26:31.724Z,8.88
2018-12-25T05:28:01.222Z,7.20
2018-12-25T05:29:30.823Z,7.45
2018-12-25T05:31:00.663Z,8.08
2018-12-25T05:32:30.473Z,5.47
2018-12-25T05:33:59.992Z,7.83
2018-12-25T05:35:29.885Z,7.05
2018-12-25T05:36:59.390Z,5.22
2018-12-25T05:38:29.213Z,6.17
2018-12-25T05:39:58.706Z,5.55
2018-12-25T05:41:28.204Z,5.53
2018-12-25T05:42:57.973Z,5.58
2018-12-25T05:44:28.119Z,6.12
2018-12-25T05:45:57.603Z,8.13
2018-12-25T05:47:27.101Z,6.60
2018-12-25T05:48:56.993Z,7.67
2018-12-25T05:50:26.483Z,6.70
2018-12-25T05:51:55.981Z,4.67
2018-12-25T05:53:25.488Z,4.83
2018-12-25T05:54:55.272Z,5.80
2018-12-25T05:56:24.765Z,6.42
2018-12-25T05:57:54.265Z,6.20
2018-12-25T05:59:23.757Z,4.50
2018-12-25T06:00:53.601Z,4.10
2018-12-25T06:02:23.404Z,3.65
2018-12-25T06:03:53.202Z,6.40
2018-12-25T06:05:22.699Z,5.08
2018-12-25T06:06:52.513Z,10.18
2018-12-25T06:08:22.027Z,20.90
2018-12-25T06:09:51.519Z,32.28
2018-12-25T06:11:21.297Z,23.18
2018-12-25T06:12:51.125Z,15.60
2018-12-25T06:14:20.640Z,15.58
2018-12-25T06:15:50.810Z,58.90
2018-12-25T06:17:20.304Z,22.67
2018-12-25T06:18:50.212Z,15.65
2018-12-25T06:20:19.805Z,11.75
2018-12-25T06:21:49.289Z,7.72
2018-12-25T06:23:19.118Z,5.75
2018-12-25T06:24:48.605Z,6.67
2018-12-25T06:26:18.104Z,12.33
2018-12-25T06:27:47.927Z,9.15
2018-12-25T06:29:17.867Z,25.90
2018-12-25T06:30:47.364Z,31.85
2018-12-25T06:32:16.955Z,20.90
2018-12-25T06:33:46.460Z,9.85
2018-12-25T06:35:16.014Z,6.55
2018-12-25T06:36:45.478Z,5.70
2018-12-25T06:38:14.975Z,6.20
2018-12-25T06:39:44.477Z,4.55
2018-12-25T06:41:13.988Z,7.53
2018-12-25T06:42:43.817Z,5.80
2018-12-25T06:44:13.428Z,5.87
2018-12-25T06:45:42.922Z,13.95
2018-12-25T06:47:12.710Z,13.65
2018-12-25T06:48:42.520Z,9.13
2018-12-25T06:50:12.016Z,9.28
2018-12-25T06:51:41.616Z,8.45
2018-12-25T06:53:11.113Z,11.53
2018-12-25T06:54:46.705Z,10.30
2018-12-25T06:56:16.210Z,11.08
2018-12-25T06:57:45.800Z,9.93
2018-12-25T06:59:15.309Z,17.50
2018-12-25T07:00:44.807Z,15.38
2018-12-25T07:02:14.307Z,12.25
2018-12-25T07:03:43.915Z,13.38
2018-12-25T07:05:13.415Z,13.48
2018-12-25T07:06:42.920Z,13.88
2018-12-25T07:08:12.412Z,12.35
2018-12-25T07:09:42.251Z,13.75
2018-12-25T07:11:11.756Z,13.38
2018-12-25T07:12:41.242Z,10.13
2018-12-25T07:14:10.879Z,7.45
2018-12-25T07:15:40.466Z,10.23
2018-12-25T07:17:10.370Z,10.20
2018-12-25T07:18:39.874Z,7.90
2018-12-25T07:20:09.386Z,8.33
2018-12-25T07:21:39.154Z,7.65
2018-12-25T07:23:09.271Z,7.72
2018-12-25T07:24:38.778Z,8.50
2018-12-25T07:26:08.373Z,8.20
2018-12-25T07:27:37.871Z,9.68
2018-12-25T07:29:07.658Z,13.08
2018-12-25T07:30:37.163Z,7.95
2018-12-25T07:32:06.657Z,9.80
2018-12-25T07:33:36.601Z,8.53
2018-12-25T07:35:06.132Z,12.63
2018-12-25T07:36:36.080Z,16.57
2018-12-25T07:38:06.009Z,11.45
2018-12-25T07:39:35.682Z,21.62
2018-12-25T07:41:05.392Z,10.40
2018-12-25T07:42:35.149Z,9.58
2018-12-25T07:44:05.031Z,9.20
2018-12-25T07:45:34.832Z,9.65
2018-12-25T07:47:05.189Z,10.50
2018-12-25T07:49:02.644Z,9.58
2018-12-25T07:50:33.075Z,6.87
2018-12-25T07:52:03.221Z,8.80
2018-12-25T07:53:33.111Z,11.50
2018-12-25T07:55:02.915Z,18.62
2018-12-25T07:56:38.597Z,17.98
2018-12-25T07:58:08.211Z,20.43
2018-12-25T07:59:38.074Z,15.15
2018-12-25T08:01:07.561Z,9.23
2018-12-25T08:02:37.225Z,7.97
2018-12-25T08:04:06.906Z,12.35
2018-12-25T08:05:36.803Z,12.75
2018-12-25T08:07:06.926Z,9.83
2018-12-25T08:08:36.500Z,7.42
2018-12-25T08:10:12.464Z,8.43
2018-12-25T08:11:42.424Z,13.10
2018-12-25T08:13:11.962Z,20.62
2018-12-25T08:14:41.509Z,21.33
2018-12-25T08:16:11.527Z,19.80
2018-12-25T08:17:41.055Z,24.98
2018-12-25T08:19:10.923Z,24.98
2018-12-25T08:20:40.443Z,43.42
2018-12-25T08:22:19.031Z,39.83
2018-12-25T08:23:48.885Z,59.18
2018-12-25T08:25:18.637Z,248.40
2018-12-25T08:26:48.388Z,175.60
2018-12-25T08:28:18.299Z,46.60
2018-12-25T08:29:47.879Z,41.73
2018-12-25T08:31:17.854Z,23.35
2018-12-25T08:32:47.386Z,21.60
2018-12-25T08:34:17.165Z,21.25
2018-12-25T08:35:47.178Z,18.65
2018-12-25T08:37:16.845Z,20.52
2018-12-25T08:38:49.283Z,29.35
2018-12-25T08:40:19.230Z,53.78
2018-12-25T08:41:49.099Z,47.15
2018-12-25T08:43:18.643Z,49.93
2018-12-25T08:44:48.179Z,29.18
2018-12-25T08:46:17.875Z,24.77
2018-12-25T08:47:47.798Z,24.10
2018-12-25T08:49:17.819Z,27.02
2018-12-25T08:50:47.369Z,28.30
2018-12-25T08:52:16.921Z,33.88
2018-12-25T08:53:46.485Z,52.78
2018-12-25T08:55:19.632Z,84.00
2018-12-25T08:56:49.616Z,78.40
2018-12-25T08:58:19.122Z,64.22
2018-12-25T08:59:48.692Z,56.42
2018-12-25T09:01:18.519Z,51.98
2018-12-25T09:02:48.208Z,46.88
2018-12-25T09:04:18.186Z,48.42
2018-12-25T09:05:47.854Z,229.50
2018-12-25T09:07:17.525Z,119.00
2018-12-25T09:08:47.197Z,69.62
2018-12-25T09:10:20.217Z,46.95
2018-12-25T09:11:50.268Z,36.23
2018-12-25T09:13:19.995Z,21.90
2018-12-25T09:14:49.852Z,24.82
2018-12-25T09:16:19.809Z,92.65
2018-12-25T09:17:49.436Z,63.33
2018-12-25T09:19:19.114Z,69.03
2018-12-25T09:20:48.683Z,80.28
2018-12-25T09:22:18.238Z,15.80
2018-12-25T09:23:48.330Z,23.55
2018-12-25T09:25:18.237Z,7.97
2018-12-25T09:26:47.824Z,11.73
2018-12-25T09:28:17.822Z,8.55
2018-12-25T09:29:47.608Z,7.00
2018-12-25T09:31:17.394Z,12.07
2018-12-25T09:32:47.281Z,31.12
2018-12-25T09:34:17.343Z,24.18
2018-12-25T09:35:47.287Z,39.78
2018-12-25T09:37:17.153Z,47.23
2018-12-25T09:38:46.927Z,28.67
2018-12-25T09:40:16.733Z,19.42
2018-12-25T09:41:46.710Z,15.80
2018-12-25T09:43:16.227Z,11.18
2018-12-25T09:44:45.770Z,9.78
2018-12-25T09:46:15.389Z,16.90
2018-12-25T09:47:44.892Z,21.70
2018-12-25T09:49:14.841Z,26.65
2018-12-25T09:50:44.360Z,29.52
2018-12-25T09:52:14.135Z,20.68
2018-12-25T09:53:43.626Z,13.62
2018-12-25T09:55:13.166Z,21.93
2018-12-25T09:56:43.743Z,21.12
2018-12-25T09:58:13.855Z,28.60
2018-12-25T09:59:43.762Z,76.50
2018-12-25T10:01:13.312Z,63.70
2018-12-25T10:02:42.826Z,103.58
2018-12-25T10:04:12.751Z,49.45
2018-12-25T10:05:42.529Z,19.25
2018-12-25T10:07:12.036Z,14.53
2018-12-25T10:08:41.550Z,6.80
2018-12-25T10:10:11.066Z,6.95
2018-12-25T10:11:44.470Z,6.62
2018-12-25T10:13:11.936Z,4.80
2018-12-25T10:14:42.174Z,5.25
2018-12-25T10:16:12.015Z,5.37
2018-12-25T10:17:41.507Z,30.75
2018-12-25T10:19:11.325Z,22.77
2018-12-25T10:20:41.000Z,14.75
2018-12-25T10:22:10.511Z,11.97
2018-12-25T10:23:40.437Z,13.30
2018-12-25T10:25:09.984Z,12.10
2018-12-25T10:26:40.146Z,24.32
2018-12-25T10:28:10.152Z,60.33
2018-12-25T10:29:39.656Z,16.07
2018-12-25T10:31:09.185Z,20.92
2018-12-25T10:40:25.388Z,5.80
2018-12-25T10:41:54.875Z,4.60
2018-12-25T10:43:24.715Z,4.95
2018-12-25T10:44:54.487Z,5.53
2018-12-25T10:46:24.007Z,3.37
2018-12-25T10:47:53.778Z,4.05
2018-12-25T10:49:23.270Z,24.02
2018-12-25T10:50:53.512Z,18.98
2018-12-25T10:52:23.010Z,27.13
2018-12-25T10:53:53.633Z,31.10
2018-12-25T10:55:23.346Z,42.38
2018-12-25T10:56:52.870Z,34.92
2018-12-25T10:58:22.749Z,23.18
2018-12-25T10:59:52.526Z,15.15
2018-12-25T11:01:25.682Z,17.87
2018-12-25T11:02:55.277Z,16.48
2018-12-25T11:04:25.137Z,15.78
2018-12-25T11:05:54.656Z,13.60
2018-12-25T11:07:24.754Z,17.57
2018-12-25T11:08:54.535Z,23.20
2018-12-25T11:10:24.033Z,25.75
2018-12-25T11:11:53.679Z,33.90
2018-12-25T11:13:23.171Z,31.75
2018-12-25T11:14:52.693Z,57.03
2018-12-25T11:16:22.583Z,51.77
2018-12-25T11:17:52.203Z,44.83
2018-12-25T11:19:21.700Z,38.25
2018-12-25T11:20:51.475Z,42.93
2018-12-25T11:22:21.006Z,36.42
2018-12-25T11:23:50.602Z,28.07
2018-12-25T11:25:20.094Z,23.55
2018-12-25T11:26:49.950Z,9.05
2018-12-25T11:28:19.549Z,9.38
2018-12-25T11:29:49.353Z,9.23
2018-12-25T11:31:18.978Z,6.72
2018-12-25T11:32:48.487Z,11.22
2018-12-25T11:34:17.983Z,11.05
2018-12-25T11:35:48.183Z,6.58
2018-12-25T11:37:17.693Z,6.00
2018-12-25T11:38:47.303Z,5.95
2018-12-25T11:40:17.073Z,6.92
2018-12-25T11:41:46.587Z,6.37
2018-12-25T11:43:16.094Z,5.40
2018-12-25T11:44:45.582Z,5.40
2018-12-25T11:46:15.113Z,8.88
2018-12-25T11:47:44.954Z,5.10
2018-12-25T11:52:10.277Z,6.70
2018-12-25T11:53:39.870Z,9.63
2018-12-25T11:55:09.376Z,8.65
2018-12-25T11:56:39.189Z,6.40
2018-12-25T11:58:09.025Z,6.40
2018-12-25T11:59:38.533Z,6.28
2018-12-25T12:01:08.270Z,6.60
2018-12-25T12:02:37.792Z,9.98
2018-12-25T12:04:07.301Z,7.92
2018-12-25T12:05:36.941Z,7.00
2018-12-25T12:07:06.477Z,5.53
2018-12-25T12:08:36.636Z,5.67
2018-12-25T12:10:07.377Z,6.05
2018-12-25T12:11:37.173Z,8.73
2018-12-25T12:13:07.426Z,10.15
2018-12-25T12:14:37.183Z,11.53
2018-12-25T12:16:06.899Z,9.75
2018-12-25T12:17:36.834Z,7.03
2018-12-25T12:19:06.484Z,5.97
2018-12-25T12:20:36.105Z,3.35
2018-12-25T12:22:05.988Z,4.78
2018-12-25T12:23:35.713Z,6.65
2018-12-25T12:25:05.412Z,11.63
2018-12-25T12:26:35.069Z,16.32
2018-12-25T12:28:05.103Z,16.80
2018-12-25T12:29:34.737Z,19.87
2018-12-25T12:31:04.667Z,21.37
2018-12-25T12:32:34.873Z,25.20
2018-12-25T12:34:04.582Z,26.57
2018-12-25T12:35:34.393Z,20.30
2018-12-25T12:37:04.820Z,19.77
2018-12-25T12:38:34.701Z,15.78
2018-12-25T12:40:05.159Z,20.45
2018-12-25T12:41:34.832Z,19.50
2018-12-25T12:43:04.664Z,24.92
2018-12-25T12:44:34.340Z,29.95
2018-12-25T12:46:03.961Z,29.92
2018-12-25T12:47:33.550Z,16.93
2018-12-25T12:49:03.212Z,15.85
2018-12-25T12:50:32.883Z,12.07
2018-12-25T12:52:02.667Z,6.20
2018-12-25T12:53:32.526Z,16.67
2018-12-25T12:55:02.348Z,13.30
2018-12-25T12:56:32.043Z,6.47
2018-12-25T12:58:01.763Z,7.40
2018-12-25T12:59:31.833Z,5.10
2018-12-25T13:01:02.648Z,7.53
2018-12-25T13:02:32.600Z,6.03
2018-12-25T13:04:02.418Z,5.33
2018-12-25T13:05:32.216Z,4.03
2018-12-25T13:07:02.101Z,8.60
2018-12-25T13:08:31.749Z,11.10
2018-12-25T13:10:01.566Z,7.83
2018-12-25T13:11:31.184Z,8.90
2018-12-25T13:13:00.914Z,7.55
2018-12-25T13:14:32.563Z,7.47
2018-12-25T13:16:02.217Z,7.10
2018-12-25T13:17:31.971Z,5.83
2018-12-25T13:19:02.376Z,6.53
2018-12-25T13:20:32.196Z,5.60
2018-12-25T13:22:01.967Z,6.67
2018-12-25T13:23:31.695Z,8.43
2018-12-25T13:25:01.342Z,5.97
2018-12-25T13:26:31.220Z,6.40
2018-12-25T13:28:01.029Z,8.53
2018-12-25T13:29:30.985Z,10.10
2018-12-25T13:31:01.176Z,15.60
2018-12-25T13:32:31.241Z,18.60
2018-12-25T13:34:01.015Z,18.70
2018-12-25T13:35:30.763Z,13.30
2018-12-25T13:37:00.687Z,15.88
2018-12-25T13:38:30.701Z,6.95
2018-12-25T13:40:00.440Z,7.80
2018-12-25T13:41:30.347Z,6.08
2018-12-25T13:43:00.002Z,8.65
2018-12-25T13:44:29.792Z,8.78
2018-12-25T13:45:59.622Z,13.68
2018-12-25T13:47:29.524Z,10.45
2018-12-25T13:48:59.020Z,9.63
2018-12-25T13:50:28.769Z,10.98
2018-12-25T13:51:58.452Z,9.33
2018-12-25T13:53:28.392Z,7.15
2018-12-25T13:54:58.663Z,12.35
2018-12-25T13:56:28.316Z,18.15
2018-12-25T13:58:18.287Z,13.78
2018-12-25T13:59:47.832Z,14.65
2018-12-25T14:01:17.516Z,18.67
2018-12-25T14:02:48.364Z,13.53
2018-12-25T14:04:18.328Z,23.27
2018-12-25T14:05:48.142Z,32.03
2018-12-25T14:07:17.899Z,24.50
2018-12-25T14:08:47.725Z,25.32
2018-12-25T14:10:17.762Z,15.98
2018-12-25T14:11:47.449Z,16.77
2018-12-25T14:13:17.299Z,13.28
2018-12-25T14:14:47.478Z,11.43
2018-12-25T14:16:18.198Z,9.75
2018-12-25T14:17:48.459Z,41.75
2018-12-25T14:19:18.159Z,15.72
2018-12-25T14:20:48.315Z,13.60
2018-12-25T14:22:18.153Z,19.30
2018-12-25T14:23:48.118Z,14.25
2018-12-25T14:25:17.941Z,22.13
2018-12-25T14:26:47.613Z,18.27
2018-12-25T14:28:17.601Z,14.25
2018-12-25T14:29:47.931Z,9.53
2018-12-25T14:31:17.657Z,11.68
2018-12-25T14:32:47.577Z,11.40
2018-12-25T14:34:17.588Z,13.30
2018-12-25T14:35:47.275Z,14.80
2018-12-25T14:37:17.128Z,12.93
2018-12-25T14:38:47.161Z,10.65
2018-12-25T14:40:17.125Z,14.60
2018-12-25T14:41:46.942Z,14.78
2018-12-25T14:43:16.792Z,10.35
2018-12-25T14:44:46.904Z,11.57
2018-12-25T14:46:16.727Z,12.25
2018-12-25T14:47:46.580Z,13.75
2018-12-25T14:49:18.267Z,10.72
2018-12-25T14:50:48.543Z,10.25
2018-12-25T14:52:18.399Z,11.33
2018-12-25T14:53:48.850Z,30.75
2018-12-25T14:55:19.046Z,31.85
2018-12-25T14:56:48.945Z,16.00
2018-12-25T14:58:19.195Z,16.62
2018-12-25T14:59:49.119Z,23.85
2018-12-25T15:01:19.035Z,28.75
2018-12-25T15:02:48.953Z,80.53
2018-12-25T15:04:19.108Z,48.20
2018-12-25T15:05:49.301Z,46.40
2018-12-25T15:07:19.148Z,52.60
2018-12-25T15:08:49.106Z,65.28
2018-12-25T15:10:18.777Z,75.80
2018-12-25T15:11:48.765Z,47.00
2018-12-25T15:13:18.832Z,19.37
2018-12-25T15:14:48.841Z,30.08
2018-12-25T15:16:19.184Z,33.25
2018-12-25T15:17:49.107Z,37.45
2018-12-25T15:19:19.004Z,32.10
2018-12-25T15:20:49.114Z,52.48
2018-12-25T15:22:18.749Z,39.27
2018-12-25T15:23:48.645Z,37.03
2018-12-25T15:25:18.853Z,24.92
2018-12-25T15:26:49.081Z,24.60
2018-12-25T15:28:18.848Z,17.85
2018-12-25T15:29:48.769Z,14.43
2018-12-25T15:31:18.528Z,12.07
2018-12-25T15:32:48.389Z,12.20
2018-12-25T15:34:18.339Z,10.90
2018-12-25T15:35:48.324Z,11.90
2018-12-25T15:37:18.766Z,18.48
2018-12-25T15:38:48.491Z,21.87
2018-12-25T15:40:18.272Z,16.93
2018-12-25T15:41:48.128Z,20.27
2018-12-25T15:43:18.530Z,15.28
2018-12-25T15:44:48.830Z,12.03
2018-12-25T15:46:18.685Z,12.07
2018-12-25T15:47:48.479Z,10.15
2018-12-25T15:49:18.376Z,6.20
2018-12-25T15:50:48.040Z,9.40
2018-12-25T15:52:17.865Z,7.92
2018-12-25T15:53:47.657Z,6.15
2018-12-25T15:55:17.559Z,6.22
2018-12-25T15:56:47.215Z,8.58
2018-12-25T15:58:19.509Z,8.35
2018-12-25T15:59:49.667Z,9.25
2018-12-25T16:01:19.282Z,8.88
2018-12-25T16:02:49.109Z,10.03
2018-12-25T16:04:18.913Z,11.43
2018-12-25T16:05:48.920Z,176.07
2018-12-25T16:07:18.937Z,114.42
2018-12-25T16:08:48.520Z,85.03
2018-12-25T16:10:18.204Z,28.55
2018-12-25T16:11:47.789Z,33.80
2018-12-25T16:13:18.072Z,50.55
2018-12-25T16:14:47.969Z,58.20
2018-12-25T16:16:17.535Z,52.23
2018-12-25T16:17:47.477Z,39.23
2018-12-25T16:19:17.432Z,19.07
2018-12-25T16:20:46.993Z,9.23
2018-12-25T16:22:16.506Z,5.22
2018-12-25T16:23:46.274Z,5.33
2018-12-25T16:25:15.803Z,11.45
2018-12-25T16:26:45.388Z,13.48
2018-12-25T16:28:15.195Z,15.98
2018-12-25T16:29:44.828Z,30.80
2018-12-25T16:31:14.599Z,32.03
2018-12-25T16:32:44.234Z,17.15
2018-12-25T16:34:14.301Z,11.25
2018-12-25T16:35:43.992Z,8.73
2018-12-25T16:37:13.898Z,43.58
2018-12-25T16:38:43.432Z,50.35
2018-12-25T16:40:13.945Z,51.53
2018-12-25T16:41:43.482Z,50.17
2018-12-25T16:43:13.467Z,45.10
2018-12-25T16:44:43.505Z,66.00
2018-12-25T16:46:13.267Z,18.10
2018-12-25T16:47:42.919Z,11.48
2018-12-25T16:49:12.484Z,13.22
2018-12-25T16:50:42.170Z,14.83
2018-12-25T16:52:12.036Z,11.35
2018-12-25T16:53:42.043Z,10.48
2018-12-25T16:55:11.827Z,6.50
2018-12-25T16:56:41.894Z,7.03
2018-12-25T16:58:11.669Z,7.33
2018-12-25T16:59:42.230Z,6.22
2018-12-25T17:01:12.209Z,6.05
2018-12-25T17:02:41.951Z,5.80
2018-12-25T17:04:11.928Z,5.33
2018-12-25T17:05:41.939Z,8.08
2018-12-25T17:07:11.696Z,22.80
2018-12-25T17:08:41.503Z,28.57
2018-12-25T17:10:11.442Z,26.77
2018-12-25T17:11:41.040Z,30.72
2018-12-25T17:13:11.145Z,24.75
2018-12-25T18:02:22.297Z,38.23
2018-12-25T18:03:56.838Z,31.63
2018-12-25T18:05:27.747Z,33.40
2018-12-25T18:06:59.176Z,30.48
2018-12-25T18:08:38.834Z,44.77
2018-12-25T18:10:09.978Z,18.95
2018-12-25T18:11:41.406Z,9.05
2018-12-25T18:13:21.816Z,9.03
2018-12-25T18:14:54.700Z,25.45
2018-12-25T18:16:30.069Z,30.15
2018-12-25T18:18:04.302Z,20.55
2018-12-25T18:19:35.984Z,49.03
2018-12-25T18:21:09.926Z,73.95
2018-12-25T18:22:40.019Z,62.98
2018-12-25T18:24:19.428Z,46.55
2018-12-25T18:25:49.611Z,33.10
2018-12-25T18:27:20.669Z,27.60
2018-12-25T18:28:55.334Z,17.35
2018-12-25T18:30:25.837Z,16.00
2018-12-25T18:32:00.672Z,14.18
2018-12-25T18:33:34.527Z,12.70
2018-12-25T18:35:07.334Z,20.57
2018-12-25T18:36:41.781Z,24.52
2018-12-25T18:38:13.066Z,22.10
2018-12-25T18:39:53.400Z,16.60
2018-12-25T18:41:27.259Z,11.15
2018-12-25T18:43:01.269Z,10.75
2018-12-25T18:44:34.589Z,10.58
2018-12-25T18:46:05.794Z,9.45
2018-12-25T18:47:35.652Z,10.35
2018-12-25T18:49:06.992Z,13.50
2018-12-25T18:50:39.827Z,15.35
2018-12-25T18:52:11.007Z,14.23
2018-12-25T18:53:46.872Z,15.25
2018-12-25T18:55:23.799Z,9.68
2018-12-25T18:56:57.484Z,8.48
2018-12-25T18:58:28.179Z,11.20
2018-12-25T19:00:00.270Z,23.62
2018-12-25T19:01:31.273Z,12.80
2018-12-25T19:03:02.455Z,14.68
2018-12-25T19:04:49.334Z,10.48
2018-12-25T19:06:23.195Z,10.75
2018-12-25T19:07:55.349Z,10.85
2018-12-25T19:09:28.134Z,9.08
2018-12-25T19:10:59.643Z,9.93
2018-12-25T19:12:34.319Z,14.73
2018-12-25T19:14:07.410Z,16.27
2018-12-25T19:15:43.545Z,16.48
2018-12-25T19:17:24.778Z,26.77
2018-12-25T19:18:58.671Z,37.38
2018-12-25T19:20:31.686Z,33.50
2018-12-25T19:22:20.689Z,15.95
2018-12-25T19:23:56.339Z,16.37
2018-12-25T19:25:32.972Z,11.50
2018-12-25T19:27:06.916Z,9.18
2018-12-25T19:28:36.755Z,10.08
2018-12-25T19:30:14.191Z,23.60
2018-12-25T19:31:45.519Z,55.52
2018-12-25T19:33:17.646Z,38.55
2018-12-25T19:34:52.872Z,20.27
2018-12-25T19:36:23.339Z,15.08
2018-12-25T19:37:57.812Z,11.60
2018-12-25T19:39:39.166Z,27.05
2018-12-25T19:41:13.668Z,12.10
2018-12-25T19:42:47.995Z,14.40
2018-12-25T19:44:27.725Z,14.90
2018-12-25T19:45:59.126Z,14.13
2018-12-25T19:47:33.452Z,17.17
2018-12-25T19:49:04.284Z,13.10
2018-12-25T19:50:44.592Z,20.50
2018-12-25T19:52:18.455Z,31.00
2018-12-25T19:53:52.239Z,21.93
2018-12-25T19:55:26.138Z,43.70
2018-12-25T19:56:57.369Z,78.78
2018-12-25T19:58:27.350Z,98.58
2018-12-25T20:00:01.428Z,112.97
2018-12-25T20:01:31.430Z,44.88
2018-12-25T20:03:14.343Z,65.25
2018-12-25T20:05:17.103Z,126.62
2018-12-25T20:07:52.646Z,60.78
2018-12-25T20:10:11.445Z,29.75
2018-12-25T20:12:19.440Z,27.58
2018-12-25T20:14:40.150Z,23.25
2018-12-25T20:16:49.179Z,18.95
2018-12-25T20:18:55.131Z,16.27
2018-12-25T20:21:09.747Z,14.93
2018-12-25T20:23:24.970Z,22.60
2018-12-25T20:25:35.840Z,26.12
2018-12-25T20:27:43.255Z,31.07
2018-12-25T20:29:47.710Z,28.77
2018-12-25T20:32:05.740Z,24.05
2018-12-25T20:34:01.442Z,17.30
2018-12-25T20:36:15.271Z,18.17
2018-12-25T20:38:22.789Z,14.20
2018-12-25T20:41:01.009Z,13.43
2018-12-25T20:43:22.704Z,30.27
2018-12-25T20:45:36.127Z,75.30
2018-12-25T20:50:16.684Z,36.00
2018-12-25T20:52:32.539Z,19.48
2018-12-25T20:55:13.930Z,15.83
2018-12-25T20:57:35.368Z,12.07
2018-12-25T21:00:14.610Z,10.18